createdAt,value
2023-05-25T00:00:33.434Z,99052.42
2023-05-25T00:03:21.147Z,99043.45
2023-05-25T00:06:10.403Z,99050.53
2023-05-25T00:08:43.659Z,99056.20
2023-05-25T00:11:31.384Z,99050.67
2023-05-25T00:14:05.178Z,99044.88
2023-05-25T00:16:41.202Z,99041.42
2023-05-25T00:19:15.106Z,99040.58
2023-05-25T00:21:50.112Z,99040.67
2023-05-25T00:24:38.077Z,99036.06
2023-05-25T00:27:14.324Z,99047.88
2023-05-25T00:29:48.332Z,99042.69
2023-05-25T00:32:36.144Z,99041.66
2023-05-25T00:35:23.886Z,99038.17
2023-05-25T00:38:14.645Z,99039.06
2023-05-25T00:40:48.312Z,99040.29
2023-05-25T00:43:36.144Z,99039.20
2023-05-25T00:46:24.464Z,99034.06
2023-05-25T00:48:58.134Z,99037.05
2023-05-25T00:51:47.735Z,99037.73
2023-05-25T00:54:22.067Z,99041.61
2023-05-25T00:57:12.233Z,99031.73
2023-05-25T01:00:02.310Z,99026.59
2023-05-25T01:02:36.647Z,99029.53
2023-05-25T01:05:13.008Z,99019.92
2023-05-25T01:08:03.611Z,99004.77
2023-05-25T01:10:40.234Z,98997.16
2023-05-25T01:13:31.013Z,98995.16
2023-05-25T01:16:06.348Z,98999.02
2023-05-25T01:18:56.032Z,98990.81
2023-05-25T01:21:41.968Z,98985.88
2023-05-25T01:24:35.616Z,98982.98
2023-05-25T01:27:10.296Z,98979.75
2023-05-25T01:29:46.934Z,98973.59
2023-05-25T01:32:37.499Z,98983.88
2023-05-25T01:35:12.954Z,98983.28
2023-05-25T01:38:01.329Z,98975.88
2023-05-25T01:40:36.206Z,98984.94
2023-05-25T01:43:26.883Z,98982.86
2023-05-25T01:46:04.337Z,98992.77
2023-05-25T01:48:57.518Z,98986.22
2023-05-25T01:51:52.921Z,98991.44
2023-05-25T01:54:30.915Z,98996.13
2023-05-25T01:57:21.778Z,98990.45
2023-05-25T01:59:59.759Z,98987.23
2023-05-25T02:02:49.086Z,98985.09
2023-05-25T02:05:23.290Z,98987.14
2023-05-25T02:08:11.566Z,98982.36
2023-05-25T02:10:45.288Z,98988.72
2023-05-25T02:13:33.413Z,98993.55
2023-05-25T02:16:08.347Z,98991.98
2023-05-25T02:18:58.291Z,98987.07
2023-05-25T02:21:32.800Z,98995.09
2023-05-25T02:24:20.842Z,98984.91
2023-05-25T02:26:56.010Z,98999.14
2023-05-25T02:29:43.916Z,98999.50
2023-05-25T02:32:17.841Z,99011.06
2023-05-25T02:35:06.643Z,99007.18
2023-05-25T02:37:40.729Z,99004.73
2023-05-25T02:40:28.690Z,99005.98
2023-05-25T02:43:02.288Z,99017.55
2023-05-25T02:45:50.619Z,99023.02
2023-05-25T02:48:24.423Z,99030.14
2023-05-25T02:51:12.634Z,99038.33
2023-05-25T02:54:01.912Z,99036.27
2023-05-25T02:56:37.799Z,99037.33
2023-05-25T02:59:26.205Z,99040.33
2023-05-25T03:02:00.221Z,99037.95
2023-05-25T03:04:49.954Z,99039.22
2023-05-25T03:07:26.637Z,99042.14
2023-05-25T03:10:16.080Z,99048.55
2023-05-25T03:12:51.317Z,99050.53
2023-05-25T03:15:41.273Z,99045.63
2023-05-25T03:18:15.022Z,99047.55
2023-05-25T03:21:06.084Z,99042.46
2023-05-25T03:23:41.607Z,99048.16
2023-05-25T03:26:30.860Z,99054.81
2023-05-25T03:29:07.733Z,99063.92
2023-05-25T03:31:56.446Z,99064.02
2023-05-25T03:34:33.784Z,99057.88
2023-05-25T03:37:23.548Z,99057.98
2023-05-25T03:39:58.281Z,99061.83
2023-05-25T03:42:48.278Z,99062.17
2023-05-25T03:45:22.548Z,99059.72
2023-05-25T03:48:11.140Z,99056.26
2023-05-25T03:50:45.128Z,99053.80
2023-05-25T03:53:33.498Z,99036.05
2023-05-25T03:56:08.569Z,99040.55
2023-05-25T03:58:57.416Z,99030.67
2023-05-25T04:01:32.403Z,99031.59
2023-05-25T04:04:25.359Z,99029.72
2023-05-25T04:06:59.291Z,99029.69
2023-05-25T04:09:47.732Z,99025.00
2023-05-25T04:12:22.808Z,99026.11
2023-05-25T04:15:14.227Z,99023.65
2023-05-25T04:17:50.200Z,99023.09
2023-05-25T04:20:24.355Z,99030.08
2023-05-25T04:23:12.934Z,99029.58
2023-05-25T04:25:50.694Z,99020.67
2023-05-25T04:28:41.689Z,99019.69
2023-05-25T04:31:37.185Z,99028.00
2023-05-25T04:34:36.360Z,99000.78
2023-05-25T04:37:18.389Z,99010.70
2023-05-25T04:40:11.717Z,99012.55
2023-05-25T04:42:46.218Z,99017.20
2023-05-25T04:45:35.628Z,99013.66
2023-05-25T04:48:10.652Z,99015.89
2023-05-25T04:51:00.625Z,99008.04
2023-05-25T04:53:35.722Z,99013.31
2023-05-25T04:56:25.924Z,99017.53
2023-05-25T04:59:00.002Z,99023.52
2023-05-25T05:01:48.908Z,99016.98
2023-05-25T05:04:24.138Z,99015.45
2023-05-25T05:07:13.567Z,99023.20
2023-05-25T05:09:47.403Z,99024.52
2023-05-25T05:12:54.967Z,99029.55
2023-05-25T05:15:28.801Z,99030.94
2023-05-25T05:18:04.226Z,99038.73
2023-05-25T05:20:38.942Z,99032.20
2023-05-25T05:23:18.451Z,99029.06
2023-05-25T05:25:52.713Z,99021.49
2023-05-25T05:28:27.649Z,99023.59
2023-05-25T05:31:01.886Z,99019.34
2023-05-25T05:33:50.341Z,99021.06
2023-05-25T05:36:25.361Z,99021.33
2023-05-25T05:38:59.134Z,99006.17
2023-05-25T05:41:34.937Z,99015.34
2023-05-25T05:44:08.803Z,99018.94
2023-05-25T05:46:42.916Z,99018.59
2023-05-25T05:49:16.774Z,99022.76
2023-05-25T05:51:50.701Z,99026.03
2023-05-25T05:54:24.668Z,99025.34
2023-05-25T05:56:59.087Z,99017.64
2023-05-25T05:59:48.998Z,99012.77
2023-05-25T06:02:56.617Z,99017.83
2023-05-25T06:05:32.281Z,99013.97
2023-05-25T06:08:08.532Z,99018.04
2023-05-25T06:10:43.435Z,99020.78
2023-05-25T06:13:17.140Z,99019.74
2023-05-25T06:15:50.995Z,99023.98
2023-05-25T06:18:41.419Z,99024.58
2023-05-25T06:21:17.140Z,99024.22
2023-05-25T06:23:50.492Z,99023.52
2023-05-25T06:26:25.077Z,99033.72
2023-05-25T06:28:59.073Z,99030.57
2023-05-25T06:31:32.690Z,99024.49
2023-05-25T06:34:06.574Z,99027.69
2023-05-25T06:36:41.825Z,99023.49
2023-05-25T06:39:16.507Z,99023.14
2023-05-25T06:41:51.253Z,99024.33
2023-05-25T06:44:40.529Z,99022.05
2023-05-25T06:47:14.601Z,99019.46
2023-05-25T06:49:48.663Z,99022.41
2023-05-25T06:52:22.805Z,99022.04
2023-05-25T06:54:56.748Z,99022.81
2023-05-25T06:57:30.841Z,99026.64
2023-05-25T07:00:07.153Z,99026.08
2023-05-25T07:02:41.146Z,99024.47
2023-05-25T07:05:15.369Z,99019.91
2023-05-25T07:07:48.918Z,99026.28
2023-05-25T07:10:22.706Z,99024.27
2023-05-25T07:12:56.658Z,99015.92
2023-05-25T07:15:30.651Z,99012.27
2023-05-25T07:18:04.286Z,99020.13
2023-05-25T07:20:38.397Z,99017.27
2023-05-25T07:23:12.522Z,99014.86
2023-05-25T07:25:47.090Z,99020.23
2023-05-25T07:28:21.035Z,99021.89
2023-05-25T07:31:12.778Z,99015.06
2023-05-25T07:33:46.703Z,99010.74
2023-05-25T07:36:34.702Z,99019.23
2023-05-25T07:39:08.767Z,99022.52
2023-05-25T07:41:42.961Z,99026.36
2023-05-25T07:44:16.600Z,99018.41
2023-05-25T07:47:03.271Z,99027.94
2023-05-25T07:49:51.262Z,99026.13
2023-05-25T07:52:26.240Z,99026.08
2023-05-25T07:55:00.045Z,99013.49
2023-05-25T07:57:34.830Z,99019.38
2023-05-25T08:00:11.309Z,99025.10
2023-05-25T08:02:48.005Z,99018.35
2023-05-25T08:05:22.204Z,99017.74
2023-05-25T08:07:56.802Z,99027.27
2023-05-25T08:10:45.876Z,99027.37
2023-05-25T08:13:19.842Z,99025.37
2023-05-25T08:15:53.965Z,99022.44
2023-05-25T08:18:27.363Z,99024.70
2023-05-25T08:21:15.650Z,99017.45
2023-05-25T08:23:50.894Z,99021.03
2023-05-25T08:26:41.193Z,99009.94
2023-05-25T08:29:16.319Z,99013.28
2023-05-25T08:31:50.798Z,99005.89
2023-05-25T08:34:24.672Z,99009.94
2023-05-25T08:36:59.339Z,99013.20
2023-05-25T08:39:49.693Z,99018.58
2023-05-25T08:42:26.248Z,99007.59
2023-05-25T08:45:30.422Z,99017.48
2023-05-25T08:47:52.909Z,99013.62
2023-05-25T08:50:42.861Z,99017.08
2023-05-25T08:53:18.180Z,99024.79
2023-05-25T08:56:10.076Z,99018.73
2023-05-25T08:58:46.895Z,99012.84
2023-05-25T09:01:38.849Z,99014.03
2023-05-25T09:04:15.082Z,99011.95
2023-05-25T09:07:10.189Z,99014.92
2023-05-25T09:09:53.566Z,99002.94
2023-05-25T09:12:28.722Z,99009.33
2023-05-25T09:15:02.595Z,99008.10
2023-05-25T09:17:50.398Z,99004.09
2023-05-25T09:20:27.195Z,99008.17
2023-05-25T09:23:15.561Z,99002.42
2023-05-25T09:25:52.372Z,99006.28
2023-05-25T09:28:47.845Z,99002.47
2023-05-25T09:31:21.715Z,99010.17
2023-05-25T09:34:15.277Z,99006.02
2023-05-25T09:36:49.214Z,99006.17
2023-05-25T09:39:39.227Z,99003.65
2023-05-25T09:42:13.968Z,99010.78
2023-05-25T09:45:01.967Z,99010.52
2023-05-25T09:47:38.821Z,99013.97
2023-05-25T09:50:28.381Z,99015.92
2023-05-25T09:53:04.343Z,99011.55
2023-05-25T09:55:52.365Z,99012.59
2023-05-25T09:58:29.602Z,99001.67
2023-05-25T10:01:04.728Z,99006.40
2023-05-25T10:04:03.473Z,99008.06
2023-05-25T10:06:29.724Z,99018.81
2023-05-25T10:09:19.722Z,99009.87
2023-05-25T10:11:56.095Z,99007.31
2023-05-25T10:14:31.588Z,99007.64
2023-05-25T10:17:08.709Z,99014.84
2023-05-25T10:20:01.676Z,99011.55
2023-05-25T10:22:39.927Z,99012.75
2023-05-25T10:25:17.556Z,99012.75
2023-05-25T10:28:08.779Z,99011.30
2023-05-25T10:30:44.498Z,99009.90
2023-05-25T10:33:33.760Z,99009.64
2023-05-25T10:38:49.114Z,99007.42
2023-05-25T10:41:24.188Z,99005.67
2023-05-25T10:44:13.777Z,99004.03
2023-05-25T10:47:03.385Z,98995.49
2023-05-25T10:49:39.304Z,98999.81
2023-05-25T10:52:31.650Z,99003.78
2023-05-25T10:55:05.937Z,99001.97
2023-05-25T10:57:40.707Z,99008.91
2023-05-25T11:00:30.011Z,98993.84
2023-05-25T11:03:03.971Z,98990.81
2023-05-25T11:05:53.400Z,98993.98
2023-05-25T11:08:28.683Z,98994.14
2023-05-25T11:11:17.371Z,98982.56
2023-05-25T11:13:51.857Z,98986.70
2023-05-25T11:16:27.700Z,98984.12
2023-05-25T11:19:18.549Z,98987.32
2023-05-25T11:21:55.671Z,98987.07
2023-05-25T11:24:31.420Z,98984.34
2023-05-25T11:27:24.839Z,98973.13
2023-05-25T11:29:59.578Z,98969.34
2023-05-25T11:32:52.151Z,98972.31
2023-05-25T11:35:27.222Z,98966.22
2023-05-25T11:38:01.497Z,98969.59
2023-05-25T11:40:49.797Z,98966.09
2023-05-25T11:43:25.436Z,98961.58
2023-05-25T11:46:00.669Z,98959.28
2023-05-25T11:48:34.491Z,98953.65
2023-05-25T11:51:25.148Z,98955.75
2023-05-25T11:53:59.171Z,98953.48
2023-05-25T11:56:35.960Z,98951.26
2023-05-25T11:59:24.762Z,98954.01
2023-05-25T12:02:03.701Z,98949.80
2023-05-25T12:04:39.286Z,98947.23
2023-05-25T12:07:13.282Z,98938.80
2023-05-25T12:10:12.102Z,98937.22
2023-05-25T12:12:47.146Z,98939.38
2023-05-25T12:15:24.256Z,98939.55
2023-05-25T12:17:58.911Z,98943.34
2023-05-25T12:20:47.210Z,98939.22
2023-05-25T12:23:21.272Z,98937.67
2023-05-25T12:26:12.345Z,98936.80
2023-05-25T12:29:02.113Z,98937.16
2023-05-25T12:31:50.109Z,98934.73
2023-05-25T12:34:26.904Z,98939.97
2023-05-25T12:37:01.624Z,98944.20
2023-05-25T12:39:50.774Z,98936.82
2023-05-25T12:42:27.781Z,98933.02
2023-05-25T12:45:17.389Z,98928.41
2023-05-25T12:47:51.465Z,98938.55
2023-05-25T12:50:26.007Z,98933.28
2023-05-25T12:53:20.011Z,98930.11
2023-05-25T12:56:03.635Z,98929.50
2023-05-25T12:58:37.364Z,98930.36
2023-05-25T13:01:26.289Z,98931.93
2023-05-25T13:04:00.056Z,98937.25
2023-05-25T13:06:36.117Z,98934.91
2023-05-25T13:09:10.641Z,98938.04
2023-05-25T13:12:00.729Z,98941.70
2023-05-25T13:14:34.833Z,98952.76
2023-05-25T13:17:09.232Z,98950.88
2023-05-25T13:19:57.675Z,98950.57
2023-05-25T13:22:32.195Z,98945.29
2023-05-25T13:25:06.873Z,98941.13
2023-05-25T13:27:57.097Z,98951.03
2023-05-25T13:30:31.172Z,98945.02
2023-05-25T13:33:19.318Z,98946.48
2023-05-25T13:35:59.294Z,98946.48
2023-05-25T13:38:33.447Z,98944.73
2023-05-25T13:41:22.785Z,98937.56
2023-05-25T13:43:56.613Z,98946.72
2023-05-25T13:46:35.065Z,98941.53
2023-05-25T13:49:20.176Z,98943.01
2023-05-25T13:51:57.030Z,98941.43
2023-05-25T13:54:44.944Z,98939.70
2023-05-25T13:57:18.783Z,98942.48
2023-05-25T14:00:08.640Z,98940.24
2023-05-25T14:02:42.464Z,98938.79
2023-05-25T14:05:16.666Z,98938.25
2023-05-25T14:07:53.028Z,98932.16
2023-05-25T14:10:43.645Z,98930.34
2023-05-25T14:13:18.494Z,98928.12
2023-05-25T14:15:53.175Z,98913.70
2023-05-25T14:18:41.262Z,98906.58
2023-05-25T14:21:14.874Z,98905.46
2023-05-25T14:24:02.792Z,98895.63
2023-05-25T14:26:36.546Z,98898.19
2023-05-25T14:29:24.209Z,98890.02
2023-05-25T14:31:58.010Z,98892.42
2023-05-25T14:34:46.609Z,98878.80
2023-05-25T14:37:20.399Z,98880.63
2023-05-25T14:40:11.502Z,98869.61
2023-05-25T14:42:47.680Z,98866.92
2023-05-25T14:45:22.444Z,98874.87
2023-05-25T14:51:02.949Z,98853.99
2023-05-25T14:53:36.808Z,98863.51
2023-05-25T14:56:11.256Z,98859.33
2023-05-25T14:58:59.247Z,98858.36
2023-05-25T15:01:34.459Z,98859.72
2023-05-25T15:04:21.846Z,98858.00
2023-05-25T15:06:55.688Z,98866.64
2023-05-25T15:09:45.450Z,98866.14
2023-05-25T15:12:19.350Z,98862.79
2023-05-25T15:14:53.063Z,98868.34
2023-05-25T15:17:26.792Z,98866.28
2023-05-25T15:20:15.570Z,98865.45
2023-05-25T15:22:50.946Z,98868.27
2023-05-25T15:28:14.573Z,98866.75
2023-05-25T15:30:48.512Z,98867.63
2023-05-25T15:33:51.474Z,98874.75
2023-05-25T15:36:11.880Z,98874.23
2023-05-25T15:38:47.024Z,98872.85
2023-05-25T15:41:35.167Z,98874.10
2023-05-25T15:44:12.970Z,98880.05
2023-05-25T15:47:02.435Z,98875.45
2023-05-25T15:49:37.362Z,98874.36
2023-05-25T15:52:25.282Z,98878.42
2023-05-25T15:54:59.237Z,98877.91
2023-05-25T15:57:34.467Z,98870.60
2023-05-25T16:02:58.436Z,98858.42
2023-05-25T16:05:46.646Z,98859.36
2023-05-25T16:08:20.580Z,98865.08
2023-05-25T16:11:14.450Z,98865.89
2023-05-25T16:13:48.857Z,98859.53
2023-05-25T16:16:24.443Z,98851.80
2023-05-25T16:19:04.721Z,98850.23
2023-05-25T16:21:52.609Z,98851.77
2023-05-25T16:24:27.463Z,98854.83
2023-05-25T16:27:02.911Z,98850.96
2023-05-25T16:29:51.124Z,98850.22
2023-05-25T16:32:29.797Z,98845.69
2023-05-25T16:35:03.548Z,98840.48
2023-05-25T16:37:37.134Z,98842.17
2023-05-25T16:40:24.930Z,98841.55
2023-05-25T16:42:58.759Z,98839.62
2023-05-25T16:45:46.822Z,98836.29
2023-05-25T16:48:25.567Z,98843.62
2023-05-25T16:51:15.500Z,98842.86
2023-05-25T16:53:49.642Z,98839.92
2023-05-25T16:56:38.580Z,98848.05
2023-05-25T16:59:12.361Z,98851.13
2023-05-25T17:02:00.870Z,98841.87
2023-05-25T17:04:34.901Z,98847.64
2023-05-25T17:07:22.649Z,98845.53
2023-05-25T17:09:59.250Z,98852.30
2023-05-25T17:12:47.594Z,98849.32
2023-05-25T17:15:21.853Z,98857.09
2023-05-25T17:18:10.010Z,98847.45
2023-05-25T17:20:46.918Z,98851.67
2023-05-25T17:23:34.862Z,98842.40
2023-05-25T17:26:08.912Z,98841.19
2023-05-25T17:28:59.352Z,98838.05
2023-05-25T17:31:33.500Z,98845.69
2023-05-25T17:34:21.438Z,98845.27
2023-05-25T17:36:55.209Z,98853.71
2023-05-25T17:39:43.320Z,98851.67
2023-05-25T17:42:17.673Z,98856.74
2023-05-25T17:45:07.626Z,98851.20
2023-05-25T17:50:47.754Z,98848.48
2023-05-25T17:53:23.632Z,98864.31
2023-05-25T17:56:12.263Z,98859.89
2023-05-25T17:58:47.858Z,98861.45
2023-05-25T18:01:36.849Z,98863.13
2023-05-25T18:04:11.339Z,98860.42
2023-05-25T18:06:59.468Z,98855.09
2023-05-25T18:09:34.254Z,98864.58
2023-05-25T18:12:22.064Z,98866.19
2023-05-25T18:14:55.898Z,98864.92
2023-05-25T18:20:16.977Z,98854.69
2023-05-25T18:23:06.628Z,98851.95
2023-05-25T18:25:43.341Z,98853.47
2023-05-25T18:28:33.116Z,98846.16
2023-05-25T18:31:08.943Z,98846.58
2023-05-25T18:34:00.411Z,98840.93
2023-05-25T18:36:34.967Z,98847.53
2023-05-25T18:39:23.060Z,98842.75
2023-05-25T18:42:12.212Z,98842.05
2023-05-25T18:45:00.519Z,98844.91
2023-05-25T18:47:48.688Z,98846.08
2023-05-25T18:50:39.691Z,98838.34
2023-05-25T18:53:14.604Z,98827.63
2023-05-25T18:56:02.772Z,98847.26
2023-05-25T18:58:36.607Z,98856.54
2023-05-25T19:01:24.516Z,98845.72
2023-05-25T19:03:59.608Z,98849.83
2023-05-25T19:06:49.635Z,98850.36
2023-05-25T19:09:23.230Z,98850.79
2023-05-25T19:12:11.513Z,98850.42
2023-05-25T19:14:45.444Z,98858.86
2023-05-25T19:17:34.256Z,98856.02
2023-05-25T19:20:09.910Z,98860.91
2023-05-25T19:22:58.046Z,98862.53
2023-05-25T19:25:32.060Z,98869.27
2023-05-25T19:28:20.435Z,98864.65
2023-05-25T19:30:54.353Z,98869.44
2023-05-25T19:33:48.197Z,98857.73
2023-05-25T19:36:23.870Z,98876.00
2023-05-25T19:39:15.039Z,98867.27
2023-05-25T19:41:49.057Z,98867.77
2023-05-25T19:44:37.443Z,98865.78
2023-05-25T19:47:11.321Z,98868.78
2023-05-25T19:49:59.372Z,98867.49
2023-05-25T19:52:34.737Z,98875.08
2023-05-25T19:55:22.768Z,98868.73
2023-05-25T19:57:58.534Z,98852.75
2023-05-25T20:00:46.686Z,98864.61
2023-05-25T20:03:42.665Z,98875.63
2023-05-25T20:10:11.076Z,98865.96
2023-05-25T20:12:45.545Z,98869.94
2023-05-25T20:15:34.446Z,98873.20
2023-05-25T20:18:08.580Z,98870.04
2023-05-25T20:20:56.747Z,98870.67
2023-05-25T20:23:31.442Z,98868.61
2023-05-25T20:26:19.756Z,98865.76
2023-05-25T20:28:53.489Z,98871.41
2023-05-25T20:31:41.677Z,98873.73
2023-05-25T20:34:16.040Z,98874.95
2023-05-25T20:37:04.190Z,98871.11
2023-05-25T20:39:40.596Z,98869.72
2023-05-25T20:42:30.408Z,98870.30
2023-05-25T20:45:06.543Z,98870.67
2023-05-25T20:48:04.857Z,98865.08
2023-05-25T20:50:38.789Z,98868.08
2023-05-25T20:53:26.590Z,98861.69
2023-05-25T20:56:02.558Z,98867.38
2023-05-25T20:58:37.590Z,98859.53
2023-05-25T21:01:25.598Z,98860.06
2023-05-25T21:04:02.436Z,98855.94
2023-05-25T21:06:39.447Z,98853.30
2023-05-25T21:09:17.001Z,98853.34
2023-05-25T21:12:42.448Z,98852.19
2023-05-25T21:15:28.663Z,98856.13
2023-05-25T21:18:37.475Z,98856.19
2023-05-25T21:21:37.017Z,98851.61
2023-05-25T21:24:14.727Z,98850.23
2023-05-25T21:26:54.212Z,98842.31
2023-05-25T21:29:46.253Z,98847.28
2023-05-25T21:32:22.888Z,98848.48
2023-05-25T21:35:17.869Z,98844.73
2023-05-25T21:37:52.256Z,98849.39
2023-05-25T21:40:39.943Z,98838.51
2023-05-25T21:43:13.602Z,98834.39
2023-05-25T21:45:47.611Z,98828.22
2023-05-25T21:48:22.461Z,98832.55
2023-05-25T21:51:10.137Z,98826.84
2023-05-25T21:53:43.626Z,98828.89
2023-05-25T21:56:32.256Z,98818.08
2023-05-25T21:59:06.355Z,98822.83
2023-05-25T22:02:13.755Z,98819.92
2023-05-25T22:04:47.305Z,98824.69
2023-05-25T22:07:35.463Z,98814.80
2023-05-25T22:10:11.351Z,98820.41
2023-05-25T22:13:00.780Z,98818.44
2023-05-25T22:15:35.091Z,98832.00
2023-05-25T22:18:22.867Z,98833.55
2023-05-25T22:20:56.699Z,98831.31
2023-05-25T22:23:44.774Z,98820.61
2023-05-25T22:26:20.020Z,98820.20
2023-05-25T22:28:53.832Z,98822.09
2023-05-25T22:31:42.311Z,98819.31
2023-05-25T22:34:16.312Z,98818.01
2023-05-25T22:37:04.443Z,98818.76
2023-05-25T22:39:38.526Z,98814.80
2023-05-25T22:42:27.031Z,98810.27
2023-05-25T22:45:00.856Z,98817.71
2023-05-25T22:47:35.061Z,98812.56
2023-05-25T22:50:23.000Z,98810.64
2023-05-25T22:52:56.712Z,98803.14
2023-05-25T22:55:47.203Z,98796.84
2023-05-25T22:58:19.930Z,98800.73
2023-05-25T23:01:07.712Z,98796.18
2023-05-25T23:03:41.952Z,98796.55
2023-05-25T23:06:29.894Z,98793.73
2023-05-25T23:09:03.655Z,98794.08
2023-05-25T23:11:51.563Z,98780.87
2023-05-25T23:14:26.628Z,98795.95
2023-05-25T23:17:14.675Z,98793.06
2023-05-25T23:19:48.295Z,98797.78
2023-05-25T23:22:36.174Z,98786.98
2023-05-25T23:25:11.741Z,98794.26
2023-05-25T23:27:45.633Z,98797.73
2023-05-25T23:30:34.870Z,98790.42
2023-05-25T23:33:10.611Z,98792.47
2023-05-25T23:35:58.654Z,98793.06
2023-05-25T23:38:33.239Z,98803.00
2023-05-25T23:41:22.138Z,98796.59
2023-05-25T23:43:56.386Z,98803.09
2023-05-25T23:46:44.853Z,98805.47
2023-05-25T23:49:18.756Z,98813.75
2023-05-25T23:52:06.915Z,98809.20
2023-05-25T23:54:40.866Z,98819.98
2023-05-25T23:57:14.886Z,98825.30
